sensor_id;sensor_type;location;lat;lon;timestamp;P1;durP1;ratioP1;P2;durP2;ratioP2
9392;SDS011;4736;52.508;13.422;2023-04-03T00:00:32;4.80;;;3.63;;
9392;SDS011;4736;52.508;13.422;2023-04-03T00:03:36;4.47;;;4.07;;
9392;SDS011;4736;52.508;13.422;2023-04-03T00:06:39;4.70;;;3.80;;
9392;SDS011;4736;52.508;13.422;2023-04-03T00:09:45;6.10;;;3.70;;
9392;SDS011;4736;52.508;13.422;2023-04-03T00:12:50;6.70;;;4.00;;
9392;SDS011;4736;52.508;13.422;2023-04-03T00:15:53;6.40;;;3.80;;
9392;SDS011;4736;52.508;13.422;2023-04-03T00:18:56;3.67;;;3.50;;
9392;SDS011;4736;52.508;13.422;2023-04-03T00:21:59;4.03;;;3.73;;
9392;SDS011;4736;52.508;13.422;2023-04-03T00:25:03;3.80;;;3.50;;
9392;SDS011;4736;52.508;13.422;2023-04-03T00:28:09;4.17;;;3.97;;
9392;SDS011;4736;52.508;13.422;2023-04-03T00:31:13;4.13;;;3.90;;
9392;SDS011;4736;52.508;13.422;2023-04-03T00:34:17;4.40;;;4.00;;
9392;SDS011;4736;52.508;13.422;2023-04-03T00:37:20;4.90;;;4.00;;
9392;SDS011;4736;52.508;13.422;2023-04-03T00:40:24;4.13;;;3.87;;
9392;SDS011;4736;52.508;13.422;2023-04-03T00:43:29;7.07;;;4.27;;
9392;SDS011;4736;52.508;13.422;2023-04-03T00:46:33;3.90;;;3.70;;
9392;SDS011;4736;52.508;13.422;2023-04-03T00:49:36;4.03;;;3.67;;
9392;SDS011;4736;52.508;13.422;2023-04-03T00:52:40;4.27;;;3.83;;
9392;SDS011;4736;52.508;13.422;2023-04-03T00:55:43;6.37;;;4.67;;
9392;SDS011;4736;52.508;13.422;2023-04-03T00:58:50;4.83;;;4.40;;
9392;SDS011;4736;52.508;13.422;2023-04-03T01:01:58;3.97;;;3.87;;
9392;SDS011;4736;52.508;13.422;2023-04-03T01:05:03;4.40;;;3.60;;
9392;SDS011;4736;52.508;13.422;2023-04-03T01:08:07;4.10;;;3.50;;
9392;SDS011;4736;52.508;13.422;2023-04-03T01:11:10;3.90;;;3.70;;
9392;SDS011;4736;52.508;13.422;2023-04-03T01:14:15;3.30;;;3.27;;
9392;SDS011;4736;52.508;13.422;2023-04-03T01:17:26;6.53;;;4.10;;
9392;SDS011;4736;52.508;13.422;2023-04-03T01:20:45;4.47;;;4.17;;
9392;SDS011;4736;52.508;13.422;2023-04-03T01:24:25;3.97;;;3.67;;
9392;SDS011;4736;52.508;13.422;2023-04-03T01:27:34;4.50;;;4.00;;
9392;SDS011;4736;52.508;13.422;2023-04-03T01:30:39;4.33;;;4.00;;
9392;SDS011;4736;52.508;13.422;2023-04-03T01:33:48;7.40;;;4.40;;
9392;SDS011;4736;52.508;13.422;2023-04-03T01:36:51;5.20;;;4.00;;
9392;SDS011;4736;52.508;13.422;2023-04-03T01:39:54;4.13;;;4.03;;
9392;SDS011;4736;52.508;13.422;2023-04-03T01:42:57;4.70;;;4.30;;
9392;SDS011;4736;52.508;13.422;2023-04-03T01:46:00;4.30;;;3.93;;
9392;SDS011;4736;52.508;13.422;2023-04-03T01:49:05;4.27;;;3.90;;
9392;SDS011;4736;52.508;13.422;2023-04-03T01:52:08;4.67;;;4.23;;
9392;SDS011;4736;52.508;13.422;2023-04-03T01:55:12;5.13;;;4.10;;
9392;SDS011;4736;52.508;13.422;2023-04-03T01:58:16;4.30;;;4.10;;
9392;SDS011;4736;52.508;13.422;2023-04-03T02:01:19;4.43;;;4.23;;
9392;SDS011;4736;52.508;13.422;2023-04-03T02:04:24;4.10;;;3.90;;
9392;SDS011;4736;52.508;13.422;2023-04-03T02:07:27;4.13;;;3.83;;
9392;SDS011;4736;52.508;13.422;2023-04-03T02:10:30;4.60;;;4.20;;
9392;SDS011;4736;52.508;13.422;2023-04-03T02:13:33;4.70;;;4.30;;
9392;SDS011;4736;52.508;13.422;2023-04-03T02:16:37;4.30;;;4.00;;
9392;SDS011;4736;52.508;13.422;2023-04-03T02:19:41;4.30;;;4.00;;
9392;SDS011;4736;52.508;13.422;2023-04-03T02:22:44;4.07;;;3.87;;
9392;SDS011;4736;52.508;13.422;2023-04-03T02:25:48;4.90;;;4.40;;
9392;SDS011;4736;52.508;13.422;2023-04-03T02:28:51;4.17;;;3.80;;
9392;SDS011;4736;52.508;13.422;2023-04-03T02:31:54;4.83;;;4.43;;
9392;SDS011;4736;52.508;13.422;2023-04-03T02:34:59;4.73;;;3.97;;
9392;SDS011;4736;52.508;13.422;2023-04-03T02:38:02;4.67;;;4.40;;
9392;SDS011;4736;52.508;13.422;2023-04-03T02:41:09;4.47;;;4.07;;
9392;SDS011;4736;52.508;13.422;2023-04-03T02:44:14;3.80;;;3.70;;
9392;SDS011;4736;52.508;13.422;2023-04-03T02:47:17;4.87;;;4.60;;
9392;SDS011;4736;52.508;13.422;2023-04-03T02:50:22;5.27;;;4.77;;
9392;SDS011;4736;52.508;13.422;2023-04-03T02:53:26;5.53;;;4.30;;
9392;SDS011;4736;52.508;13.422;2023-04-03T02:56:28;5.40;;;4.23;;
9392;SDS011;4736;52.508;13.422;2023-04-03T02:59:32;5.33;;;4.30;;
9392;SDS011;4736;52.508;13.422;2023-04-03T03:02:35;4.47;;;4.07;;
9392;SDS011;4736;52.508;13.422;2023-04-03T03:05:39;7.77;;;4.43;;
9392;SDS011;4736;52.508;13.422;2023-04-03T03:08:42;4.47;;;4.17;;
9392;SDS011;4736;52.508;13.422;2023-04-03T03:11:46;10.83;;;4.17;;
9392;SDS011;4736;52.508;13.422;2023-04-03T03:14:50;4.10;;;3.90;;
9392;SDS011;4736;52.508;13.422;2023-04-03T03:17:54;4.17;;;3.90;;
9392;SDS011;4736;52.508;13.422;2023-04-03T03:20:58;4.67;;;4.30;;
9392;SDS011;4736;52.508;13.422;2023-04-03T03:24:03;4.50;;;4.10;;
9392;SDS011;4736;52.508;13.422;2023-04-03T03:27:07;5.87;;;4.17;;
9392;SDS011;4736;52.508;13.422;2023-04-03T03:30:13;4.30;;;4.00;;
9392;SDS011;4736;52.508;13.422;2023-04-03T03:33:16;5.23;;;4.10;;
9392;SDS011;4736;52.508;13.422;2023-04-03T03:36:21;4.43;;;4.07;;
9392;SDS011;4736;52.508;13.422;2023-04-03T03:39:24;4.20;;;4.00;;
9392;SDS011;4736;52.508;13.422;2023-04-03T03:42:27;4.53;;;4.30;;
9392;SDS011;4736;52.508;13.422;2023-04-03T03:45:30;4.50;;;4.07;;
9392;SDS011;4736;52.508;13.422;2023-04-03T03:48:34;6.50;;;3.97;;
9392;SDS011;4736;52.508;13.422;2023-04-03T03:51:38;3.93;;;3.73;;
9392;SDS011;4736;52.508;13.422;2023-04-03T03:54:42;4.53;;;4.13;;
9392;SDS011;4736;52.508;13.422;2023-04-03T03:57:46;4.27;;;3.97;;
9392;SDS011;4736;52.508;13.422;2023-04-03T04:00:49;5.83;;;4.03;;
9392;SDS011;4736;52.508;13.422;2023-04-03T04:03:52;4.37;;;4.07;;
9392;SDS011;4736;52.508;13.422;2023-04-03T04:06:57;5.90;;;4.10;;
9392;SDS011;4736;52.508;13.422;2023-04-03T04:10:01;4.73;;;4.43;;
9392;SDS011;4736;52.508;13.422;2023-04-03T04:13:05;4.70;;;4.30;;
9392;SDS011;4736;52.508;13.422;2023-04-03T04:16:09;6.87;;;4.13;;
9392;SDS011;4736;52.508;13.422;2023-04-03T04:19:12;4.77;;;4.57;;
9392;SDS011;4736;52.508;13.422;2023-04-03T04:22:17;5.23;;;4.50;;
9392;SDS011;4736;52.508;13.422;2023-04-03T04:25:20;7.47;;;4.40;;
9392;SDS011;4736;52.508;13.422;2023-04-03T04:28:23;8.93;;;5.17;;
9392;SDS011;4736;52.508;13.422;2023-04-03T04:31:26;9.87;;;5.03;;
9392;SDS011;4736;52.508;13.422;2023-04-03T04:34:29;6.87;;;4.70;;
9392;SDS011;4736;52.508;13.422;2023-04-03T04:37:33;4.13;;;3.93;;
9392;SDS011;4736;52.508;13.422;2023-04-03T04:40:37;4.70;;;4.30;;
9392;SDS011;4736;52.508;13.422;2023-04-03T04:43:39;4.83;;;4.43;;
9392;SDS011;4736;52.508;13.422;2023-04-03T04:46:42;4.47;;;4.20;;
9392;SDS011;4736;52.508;13.422;2023-04-03T04:49:46;5.17;;;4.30;;
9392;SDS011;4736;52.508;13.422;2023-04-03T04:52:52;4.30;;;4.07;;
9392;SDS011;4736;52.508;13.422;2023-04-03T04:55:55;4.73;;;4.33;;
9392;SDS011;4736;52.508;13.422;2023-04-03T04:58:58;6.67;;;4.73;;
9392;SDS011;4736;52.508;13.422;2023-04-03T05:02:01;5.30;;;3.93;;
9392;SDS011;4736;52.508;13.422;2023-04-03T05:05:05;4.23;;;3.90;;
9392;SDS011;4736;52.508;13.422;2023-04-03T05:08:10;6.77;;;4.13;;
9392;SDS011;4736;52.508;13.422;2023-04-03T05:11:13;4.47;;;4.00;;
9392;SDS011;4736;52.508;13.422;2023-04-03T05:14:16;4.10;;;3.70;;
9392;SDS011;4736;52.508;13.422;2023-04-03T05:17:19;4.50;;;4.10;;
9392;SDS011;4736;52.508;13.422;2023-04-03T05:20:22;6.13;;;3.80;;
9392;SDS011;4736;52.508;13.422;2023-04-03T05:23:27;6.90;;;4.13;;
9392;SDS011;4736;52.508;13.422;2023-04-03T05:26:30;4.20;;;3.80;;
9392;SDS011;4736;52.508;13.422;2023-04-03T05:29:33;4.60;;;3.90;;
9392;SDS011;4736;52.508;13.422;2023-04-03T05:32:36;4.60;;;4.17;;
9392;SDS011;4736;52.508;13.422;2023-04-03T05:35:39;5.10;;;4.60;;
9392;SDS011;4736;52.508;13.422;2023-04-03T05:38:46;6.07;;;4.13;;
9392;SDS011;4736;52.508;13.422;2023-04-03T05:41:50;5.33;;;4.67;;
9392;SDS011;4736;52.508;13.422;2023-04-03T05:44:53;5.10;;;4.77;;
9392;SDS011;4736;52.508;13.422;2023-04-03T05:47:56;5.93;;;3.90;;
9392;SDS011;4736;52.508;13.422;2023-04-03T05:51:00;5.47;;;4.47;;
9392;SDS011;4736;52.508;13.422;2023-04-03T05:54:08;5.37;;;4.10;;
9392;SDS011;4736;52.508;13.422;2023-04-03T05:57:15;6.87;;;4.60;;
9392;SDS011;4736;52.508;13.422;2023-04-03T06:00:19;5.13;;;4.40;;
9392;SDS011;4736;52.508;13.422;2023-04-03T06:03:22;7.23;;;4.00;;
9392;SDS011;4736;52.508;13.422;2023-04-03T06:06:36;4.37;;;4.07;;
9392;SDS011;4736;52.508;13.422;2023-04-03T06:09:47;4.37;;;4.00;;
9392;SDS011;4736;52.508;13.422;2023-04-03T06:12:51;5.63;;;4.00;;
9392;SDS011;4736;52.508;13.422;2023-04-03T06:15:54;3.87;;;3.57;;
9392;SDS011;4736;52.508;13.422;2023-04-03T06:18:57;4.97;;;4.47;;
9392;SDS011;4736;52.508;13.422;2023-04-03T06:22:00;5.37;;;4.70;;
9392;SDS011;4736;52.508;13.422;2023-04-03T06:25:06;4.27;;;3.73;;
9392;SDS011;4736;52.508;13.422;2023-04-03T06:28:10;4.20;;;3.80;;
9392;SDS011;4736;52.508;13.422;2023-04-03T06:31:15;4.87;;;3.93;;
9392;SDS011;4736;52.508;13.422;2023-04-03T06:34:19;4.00;;;3.67;;
9392;SDS011;4736;52.508;13.422;2023-04-03T06:37:22;4.03;;;3.87;;
9392;SDS011;4736;52.508;13.422;2023-04-03T06:40:28;7.43;;;4.10;;
9392;SDS011;4736;52.508;13.422;2023-04-03T06:43:31;3.57;;;3.37;;
9392;SDS011;4736;52.508;13.422;2023-04-03T06:46:35;4.33;;;3.90;;
9392;SDS011;4736;52.508;13.422;2023-04-03T06:49:38;3.90;;;3.60;;
9392;SDS011;4736;52.508;13.422;2023-04-03T06:52:42;4.23;;;3.93;;
9392;SDS011;4736;52.508;13.422;2023-04-03T06:55:47;5.03;;;3.90;;
9392;SDS011;4736;52.508;13.422;2023-04-03T06:58:50;3.90;;;3.70;;
9392;SDS011;4736;52.508;13.422;2023-04-03T07:01:55;4.07;;;3.63;;
9392;SDS011;4736;52.508;13.422;2023-04-03T07:05:00;3.70;;;3.47;;
9392;SDS011;4736;52.508;13.422;2023-04-03T07:08:03;4.13;;;3.50;;
9392;SDS011;4736;52.508;13.422;2023-04-03T07:11:07;4.00;;;3.60;;
9392;SDS011;4736;52.508;13.422;2023-04-03T07:14:11;3.43;;;3.13;;
9392;SDS011;4736;52.508;13.422;2023-04-03T07:17:15;3.23;;;3.07;;
9392;SDS011;4736;52.508;13.422;2023-04-03T07:20:18;3.63;;;3.37;;
9392;SDS011;4736;52.508;13.422;2023-04-03T07:23:22;3.27;;;3.17;;
9392;SDS011;4736;52.508;13.422;2023-04-03T07:26:27;4.60;;;3.30;;
9392;SDS011;4736;52.508;13.422;2023-04-03T07:29:30;3.43;;;3.17;;
9392;SDS011;4736;52.508;13.422;2023-04-03T07:32:34;4.83;;;3.23;;
9392;SDS011;4736;52.508;13.422;2023-04-03T07:35:38;3.50;;;3.20;;
9392;SDS011;4736;52.508;13.422;2023-04-03T07:38:41;3.43;;;3.30;;
9392;SDS011;4736;52.508;13.422;2023-04-03T07:41:45;3.10;;;2.90;;
9392;SDS011;4736;52.508;13.422;2023-04-03T07:44:48;3.60;;;3.30;;
9392;SDS011;4736;52.508;13.422;2023-04-03T07:47:52;3.47;;;3.27;;
9392;SDS011;4736;52.508;13.422;2023-04-03T07:50:58;4.77;;;3.40;;
9392;SDS011;4736;52.508;13.422;2023-04-03T07:54:01;3.37;;;3.07;;
9392;SDS011;4736;52.508;13.422;2023-04-03T07:57:07;3.73;;;3.40;;
9392;SDS011;4736;52.508;13.422;2023-04-03T08:00:11;3.37;;;3.27;;
9392;SDS011;4736;52.508;13.422;2023-04-03T08:03:15;3.50;;;3.30;;
9392;SDS011;4736;52.508;13.422;2023-04-03T08:06:19;3.63;;;3.43;;
9392;SDS011;4736;52.508;13.422;2023-04-03T08:09:38;3.57;;;3.37;;
9392;SDS011;4736;52.508;13.422;2023-04-03T08:12:42;3.60;;;3.27;;
9392;SDS011;4736;52.508;13.422;2023-04-03T08:15:48;3.67;;;3.47;;
9392;SDS011;4736;52.508;13.422;2023-04-03T08:18:52;3.30;;;3.10;;
9392;SDS011;4736;52.508;13.422;2023-04-03T08:21:55;3.50;;;3.30;;
9392;SDS011;4736;52.508;13.422;2023-04-03T08:24:59;3.43;;;3.23;;
9392;SDS011;4736;52.508;13.422;2023-04-03T08:28:04;3.20;;;3.10;;
9392;SDS011;4736;52.508;13.422;2023-04-03T08:31:09;3.60;;;3.30;;
9392;SDS011;4736;52.508;13.422;2023-04-03T08:34:14;3.47;;;3.23;;
9392;SDS011;4736;52.508;13.422;2023-04-03T08:37:17;3.27;;;3.00;;
9392;SDS011;4736;52.508;13.422;2023-04-03T08:40:20;3.70;;;3.50;;
9392;SDS011;4736;52.508;13.422;2023-04-03T08:43:28;3.77;;;3.33;;
9392;SDS011;4736;52.508;13.422;2023-04-03T08:46:42;3.87;;;3.20;;
9392;SDS011;4736;52.508;13.422;2023-04-03T08:49:58;4.13;;;3.57;;
9392;SDS011;4736;52.508;13.422;2023-04-03T08:53:04;4.07;;;3.70;;
9392;SDS011;4736;52.508;13.422;2023-04-03T08:56:14;8.77;;;4.13;;
9392;SDS011;4736;52.508;13.422;2023-04-03T08:59:23;5.90;;;4.40;;
9392;SDS011;4736;52.508;13.422;2023-04-03T09:02:31;3.50;;;3.20;;
9392;SDS011;4736;52.508;13.422;2023-04-03T09:05:39;4.50;;;3.53;;
9392;SDS011;4736;52.508;13.422;2023-04-03T09:08:49;3.50;;;3.30;;
9392;SDS011;4736;52.508;13.422;2023-04-03T09:12:00;3.97;;;3.67;;
9392;SDS011;4736;52.508;13.422;2023-04-03T09:15:18;3.73;;;3.43;;
9392;SDS011;4736;52.508;13.422;2023-04-03T09:18:39;5.80;;;4.33;;
9392;SDS011;4736;52.508;13.422;2023-04-03T09:21:48;7.10;;;3.97;;
9392;SDS011;4736;52.508;13.422;2023-04-03T09:24:53;5.00;;;3.30;;
9392;SDS011;4736;52.508;13.422;2023-04-03T09:28:00;3.27;;;3.17;;
9392;SDS011;4736;52.508;13.422;2023-04-03T09:31:10;3.83;;;3.57;;
9392;SDS011;4736;52.508;13.422;2023-04-03T09:34:23;3.00;;;2.90;;
9392;SDS011;4736;52.508;13.422;2023-04-03T09:37:35;4.07;;;3.87;;
9392;SDS011;4736;52.508;13.422;2023-04-03T09:40:42;3.77;;;3.43;;
9392;SDS011;4736;52.508;13.422;2023-04-03T09:43:51;3.57;;;3.20;;
9392;SDS011;4736;52.508;13.422;2023-04-03T09:46:56;3.07;;;2.90;;
9392;SDS011;4736;52.508;13.422;2023-04-03T09:50:15;3.47;;;3.27;;
9392;SDS011;4736;52.508;13.422;2023-04-03T09:53:25;3.60;;;3.30;;
9392;SDS011;4736;52.508;13.422;2023-04-03T09:56:34;3.10;;;3.00;;
9392;SDS011;4736;52.508;13.422;2023-04-03T09:59:38;3.40;;;3.10;;
9392;SDS011;4736;52.508;13.422;2023-04-03T10:02:48;3.50;;;3.20;;
9392;SDS011;4736;52.508;13.422;2023-04-03T10:05:53;3.50;;;3.00;;
9392;SDS011;4736;52.508;13.422;2023-04-03T10:08:59;4.53;;;2.90;;
9392;SDS011;4736;52.508;13.422;2023-04-03T10:12:06;3.30;;;3.10;;
9392;SDS011;4736;52.508;13.422;2023-04-03T10:15:11;3.10;;;3.00;;
9392;SDS011;4736;52.508;13.422;2023-04-03T10:18:29;3.50;;;3.40;;
9392;SDS011;4736;52.508;13.422;2023-04-03T10:21:40;3.07;;;2.97;;
9392;SDS011;4736;52.508;13.422;2023-04-03T10:24:52;3.43;;;3.10;;
9392;SDS011;4736;52.508;13.422;2023-04-03T10:28:03;3.37;;;3.17;;
9392;SDS011;4736;52.508;13.422;2023-04-03T10:31:13;2.93;;;2.90;;
9392;SDS011;4736;52.508;13.422;2023-04-03T10:34:21;3.40;;;3.20;;
9392;SDS011;4736;52.508;13.422;2023-04-03T10:37:29;3.93;;;3.10;;
9392;SDS011;4736;52.508;13.422;2023-04-03T10:40:39;2.80;;;2.70;;
9392;SDS011;4736;52.508;13.422;2023-04-03T10:43:55;3.03;;;2.93;;
9392;SDS011;4736;52.508;13.422;2023-04-03T10:47:10;2.90;;;2.80;;
9392;SDS011;4736;52.508;13.422;2023-04-03T10:50:31;3.13;;;3.07;;
9392;SDS011;4736;52.508;13.422;2023-04-03T10:53:49;3.80;;;2.53;;
9392;SDS011;4736;52.508;13.422;2023-04-03T10:57:00;3.40;;;3.20;;
9392;SDS011;4736;52.508;13.422;2023-04-03T11:00:14;3.27;;;3.17;;
9392;SDS011;4736;52.508;13.422;2023-04-03T11:03:24;4.47;;;3.13;;
9392;SDS011;4736;52.508;13.422;2023-04-03T11:06:35;3.53;;;3.30;;
9392;SDS011;4736;52.508;13.422;2023-04-03T11:09:42;4.97;;;2.80;;
9392;SDS011;4736;52.508;13.422;2023-04-03T11:12:50;3.17;;;2.93;;
9392;SDS011;4736;52.508;13.422;2023-04-03T11:15:59;3.57;;;3.37;;
9392;SDS011;4736;52.508;13.422;2023-04-03T11:19:03;2.93;;;2.83;;
9392;SDS011;4736;52.508;13.422;2023-04-03T11:22:18;3.10;;;2.93;;
9392;SDS011;4736;52.508;13.422;2023-04-03T11:25:27;3.37;;;3.20;;
9392;SDS011;4736;52.508;13.422;2023-04-03T11:28:34;3.10;;;3.00;;
9392;SDS011;4736;52.508;13.422;2023-04-03T11:31:41;3.10;;;3.00;;
9392;SDS011;4736;52.508;13.422;2023-04-03T11:34:58;3.10;;;2.93;;
9392;SDS011;4736;52.508;13.422;2023-04-03T11:38:05;3.43;;;3.27;;
9392;SDS011;4736;52.508;13.422;2023-04-03T11:41:09;3.33;;;3.10;;
9392;SDS011;4736;52.508;13.422;2023-04-03T11:47:45;2.93;;;2.73;;
9392;SDS011;4736;52.508;13.422;2023-04-03T11:50:51;3.37;;;2.97;;
9392;SDS011;4736;52.508;13.422;2023-04-03T11:53:55;3.83;;;3.13;;
9392;SDS011;4736;52.508;13.422;2023-04-03T11:57:46;3.13;;;3.00;;
9392;SDS011;4736;52.508;13.422;2023-04-03T12:01:05;3.13;;;2.90;;
9392;SDS011;4736;52.508;13.422;2023-04-03T12:04:10;3.20;;;3.00;;
9392;SDS011;4736;52.508;13.422;2023-04-03T12:07:18;3.23;;;3.03;;
9392;SDS011;4736;52.508;13.422;2023-04-03T12:10:23;3.63;;;3.33;;
9392;SDS011;4736;52.508;13.422;2023-04-03T12:13:33;4.07;;;3.87;;
9392;SDS011;4736;52.508;13.422;2023-04-03T12:16:41;3.40;;;3.20;;
9392;SDS011;4736;52.508;13.422;2023-04-03T12:19:47;6.53;;;4.13;;
9392;SDS011;4736;52.508;13.422;2023-04-03T12:26:27;3.70;;;2.90;;
9392;SDS011;4736;52.508;13.422;2023-04-03T12:29:50;3.27;;;3.17;;
9392;SDS011;4736;52.508;13.422;2023-04-03T12:33:05;3.30;;;3.10;;
9392;SDS011;4736;52.508;13.422;2023-04-03T12:36:23;3.47;;;2.90;;
9392;SDS011;4736;52.508;13.422;2023-04-03T12:39:44;3.23;;;3.00;;
9392;SDS011;4736;52.508;13.422;2023-04-03T12:46:39;3.00;;;2.90;;
9392;SDS011;4736;52.508;13.422;2023-04-03T12:49:46;3.13;;;3.03;;
9392;SDS011;4736;52.508;13.422;2023-04-03T12:52:57;2.73;;;2.70;;
9392;SDS011;4736;52.508;13.422;2023-04-03T12:56:22;3.40;;;3.20;;
9392;SDS011;4736;52.508;13.422;2023-04-03T12:59:27;3.57;;;3.37;;
9392;SDS011;4736;52.508;13.422;2023-04-03T13:02:31;3.10;;;3.00;;
9392;SDS011;4736;52.508;13.422;2023-04-03T13:05:36;3.27;;;3.07;;
9392;SDS011;4736;52.508;13.422;2023-04-03T13:08:40;2.77;;;2.67;;
9392;SDS011;4736;52.508;13.422;2023-04-03T13:11:51;3.23;;;3.03;;
9392;SDS011;4736;52.508;13.422;2023-04-03T13:15:02;2.90;;;2.80;;
9392;SDS011;4736;52.508;13.422;2023-04-03T13:18:22;3.03;;;2.93;;
9392;SDS011;4736;52.508;13.422;2023-04-03T13:21:27;2.80;;;2.80;;
9392;SDS011;4736;52.508;13.422;2023-04-03T13:24:33;3.13;;;3.03;;
9392;SDS011;4736;52.508;13.422;2023-04-03T13:27:41;2.80;;;2.70;;
9392;SDS011;4736;52.508;13.422;2023-04-03T13:30:56;2.90;;;2.70;;
9392;SDS011;4736;52.508;13.422;2023-04-03T13:34:04;3.97;;;2.90;;
9392;SDS011;4736;52.508;13.422;2023-04-03T13:37:18;3.20;;;3.00;;
9392;SDS011;4736;52.508;13.422;2023-04-03T13:40:24;3.03;;;2.90;;
9392;SDS011;4736;52.508;13.422;2023-04-03T13:43:33;3.07;;;2.87;;
9392;SDS011;4736;52.508;13.422;2023-04-03T13:46:38;2.70;;;2.70;;
9392;SDS011;4736;52.508;13.422;2023-04-03T13:49:42;3.10;;;3.00;;
9392;SDS011;4736;52.508;13.422;2023-04-03T13:52:48;3.37;;;3.10;;
9392;SDS011;4736;52.508;13.422;2023-04-03T13:55:55;3.40;;;3.20;;
9392;SDS011;4736;52.508;13.422;2023-04-03T13:59:04;2.73;;;2.73;;
9392;SDS011;4736;52.508;13.422;2023-04-03T14:02:29;3.07;;;2.90;;
9392;SDS011;4736;52.508;13.422;2023-04-03T14:05:35;3.47;;;2.90;;
9392;SDS011;4736;52.508;13.422;2023-04-03T14:08:38;3.30;;;3.00;;
9392;SDS011;4736;52.508;13.422;2023-04-03T14:11:44;3.13;;;3.03;;
9392;SDS011;4736;52.508;13.422;2023-04-03T14:14:48;3.00;;;2.80;;
9392;SDS011;4736;52.508;13.422;2023-04-03T14:17:53;3.33;;;3.03;;
9392;SDS011;4736;52.508;13.422;2023-04-03T14:20:56;4.07;;;3.77;;
9392;SDS011;4736;52.508;13.422;2023-04-03T14:23:59;3.10;;;3.00;;
9392;SDS011;4736;52.508;13.422;2023-04-03T14:27:02;3.20;;;3.10;;
9392;SDS011;4736;52.508;13.422;2023-04-03T14:30:14;3.10;;;3.00;;
9392;SDS011;4736;52.508;13.422;2023-04-03T14:33:21;3.23;;;3.03;;
9392;SDS011;4736;52.508;13.422;2023-04-03T14:36:28;2.77;;;2.77;;
9392;SDS011;4736;52.508;13.422;2023-04-03T14:39:33;2.80;;;2.70;;
9392;SDS011;4736;52.508;13.422;2023-04-03T14:42:36;5.93;;;3.03;;
9392;SDS011;4736;52.508;13.422;2023-04-03T14:45:40;2.93;;;2.73;;
9392;SDS011;4736;52.508;13.422;2023-04-03T14:48:45;3.17;;;2.97;;
9392;SDS011;4736;52.508;13.422;2023-04-03T14:51:48;3.10;;;3.00;;
9392;SDS011;4736;52.508;13.422;2023-04-03T14:54:52;3.60;;;3.20;;
9392;SDS011;4736;52.508;13.422;2023-04-03T14:57:56;4.53;;;3.27;;
9392;SDS011;4736;52.508;13.422;2023-04-03T15:00:59;3.23;;;3.13;;
9392;SDS011;4736;52.508;13.422;2023-04-03T15:04:08;3.73;;;3.20;;
9392;SDS011;4736;52.508;13.422;2023-04-03T15:07:14;3.47;;;3.37;;
9392;SDS011;4736;52.508;13.422;2023-04-03T15:10:18;3.33;;;3.13;;
9392;SDS011;4736;52.508;13.422;2023-04-03T15:13:23;3.23;;;3.10;;
9392;SDS011;4736;52.508;13.422;2023-04-03T15:16:26;4.50;;;3.13;;
9392;SDS011;4736;52.508;13.422;2023-04-03T15:19:32;3.30;;;3.20;;
9392;SDS011;4736;52.508;13.422;2023-04-03T15:22:39;4.67;;;3.33;;
9392;SDS011;4736;52.508;13.422;2023-04-03T15:25:43;3.07;;;2.97;;
9392;SDS011;4736;52.508;13.422;2023-04-03T15:28:49;3.10;;;3.00;;
9392;SDS011;4736;52.508;13.422;2023-04-03T15:31:53;7.40;;;3.30;;
9392;SDS011;4736;52.508;13.422;2023-04-03T15:34:57;3.83;;;3.53;;
9392;SDS011;4736;52.508;13.422;2023-04-03T15:38:00;3.33;;;3.03;;
9392;SDS011;4736;52.508;13.422;2023-04-03T15:41:03;6.03;;;3.47;;
9392;SDS011;4736;52.508;13.422;2023-04-03T15:44:06;3.40;;;2.97;;
9392;SDS011;4736;52.508;13.422;2023-04-03T15:47:10;3.40;;;3.30;;
9392;SDS011;4736;52.508;13.422;2023-04-03T15:50:14;3.90;;;3.70;;
9392;SDS011;4736;52.508;13.422;2023-04-03T15:53:17;3.20;;;3.00;;
9392;SDS011;4736;52.508;13.422;2023-04-03T15:56:21;3.97;;;3.60;;
9392;SDS011;4736;52.508;13.422;2023-04-03T15:59:24;3.80;;;3.57;;
9392;SDS011;4736;52.508;13.422;2023-04-03T16:02:27;3.20;;;3.00;;
9392;SDS011;4736;52.508;13.422;2023-04-03T16:05:32;4.00;;;3.30;;
9392;SDS011;4736;52.508;13.422;2023-04-03T16:08:37;5.17;;;3.30;;
9392;SDS011;4736;52.508;13.422;2023-04-03T16:11:39;3.40;;;3.40;;
9392;SDS011;4736;52.508;13.422;2023-04-03T16:14:42;3.03;;;2.97;;
9392;SDS011;4736;52.508;13.422;2023-04-03T16:17:45;3.20;;;3.10;;
9392;SDS011;4736;52.508;13.422;2023-04-03T16:20:51;3.27;;;3.20;;
9392;SDS011;4736;52.508;13.422;2023-04-03T16:23:55;3.10;;;3.00;;
9392;SDS011;4736;52.508;13.422;2023-04-03T16:26:59;3.87;;;3.50;;
9392;SDS011;4736;52.508;13.422;2023-04-03T16:30:02;4.27;;;3.90;;
9392;SDS011;4736;52.508;13.422;2023-04-03T16:33:07;3.67;;;3.37;;
9392;SDS011;4736;52.508;13.422;2023-04-03T16:36:12;3.23;;;3.13;;
9392;SDS011;4736;52.508;13.422;2023-04-03T16:39:15;5.10;;;4.03;;
9392;SDS011;4736;52.508;13.422;2023-04-03T16:42:18;3.27;;;3.10;;
9392;SDS011;4736;52.508;13.422;2023-04-03T16:45:22;4.33;;;3.20;;
9392;SDS011;4736;52.508;13.422;2023-04-03T16:48:25;3.50;;;3.40;;
9392;SDS011;4736;52.508;13.422;2023-04-03T16:51:29;3.53;;;3.37;;
9392;SDS011;4736;52.508;13.422;2023-04-03T16:54:32;3.70;;;3.30;;
9392;SDS011;4736;52.508;13.422;2023-04-03T16:57:36;3.63;;;3.47;;
9392;SDS011;4736;52.508;13.422;2023-04-03T17:00:39;3.63;;;3.43;;
9392;SDS011;4736;52.508;13.422;2023-04-03T17:03:42;4.00;;;3.80;;
9392;SDS011;4736;52.508;13.422;2023-04-03T17:06:47;3.70;;;3.40;;
9392;SDS011;4736;52.508;13.422;2023-04-03T17:09:51;3.93;;;3.63;;
9392;SDS011;4736;52.508;13.422;2023-04-03T17:12:55;3.83;;;3.70;;
9392;SDS011;4736;52.508;13.422;2023-04-03T17:15:58;3.83;;;3.37;;
9392;SDS011;4736;52.508;13.422;2023-04-03T17:19:01;3.63;;;3.37;;
9392;SDS011;4736;52.508;13.422;2023-04-03T17:22:06;3.43;;;3.33;;
9392;SDS011;4736;52.508;13.422;2023-04-03T17:25:12;3.60;;;3.37;;
9392;SDS011;4736;52.508;13.422;2023-04-03T17:28:16;3.80;;;3.60;;
9392;SDS011;4736;52.508;13.422;2023-04-03T17:31:19;3.60;;;3.50;;
9392;SDS011;4736;52.508;13.422;2023-04-03T17:34:22;3.40;;;3.40;;
9392;SDS011;4736;52.508;13.422;2023-04-03T17:37:26;3.80;;;3.67;;
9392;SDS011;4736;52.508;13.422;2023-04-03T17:40:29;3.60;;;3.40;;
9392;SDS011;4736;52.508;13.422;2023-04-03T17:43:33;3.87;;;3.67;;
9392;SDS011;4736;52.508;13.422;2023-04-03T17:46:38;3.50;;;3.30;;
9392;SDS011;4736;52.508;13.422;2023-04-03T17:49:42;3.60;;;3.40;;
9392;SDS011;4736;52.508;13.422;2023-04-03T17:52:46;3.63;;;3.53;;
9392;SDS011;4736;52.508;13.422;2023-04-03T17:55:49;4.50;;;3.70;;
9392;SDS011;4736;52.508;13.422;2023-04-03T17:58:54;3.87;;;3.77;;
9392;SDS011;4736;52.508;13.422;2023-04-03T18:01:58;4.03;;;3.80;;
9392;SDS011;4736;52.508;13.422;2023-04-03T18:05:01;4.17;;;3.87;;
9392;SDS011;4736;52.508;13.422;2023-04-03T18:08:06;4.30;;;3.77;;
9392;SDS011;4736;52.508;13.422;2023-04-03T18:11:10;4.00;;;3.63;;
9392;SDS011;4736;52.508;13.422;2023-04-03T18:14:15;3.73;;;3.53;;
9392;SDS011;4736;52.508;13.422;2023-04-03T18:17:20;3.43;;;3.33;;
9392;SDS011;4736;52.508;13.422;2023-04-03T18:20:24;3.57;;;3.47;;
9392;SDS011;4736;52.508;13.422;2023-04-03T18:23:29;3.50;;;3.33;;
9392;SDS011;4736;52.508;13.422;2023-04-03T18:26:34;3.80;;;3.70;;
9392;SDS011;4736;52.508;13.422;2023-04-03T18:29:37;3.87;;;3.63;;
9392;SDS011;4736;52.508;13.422;2023-04-03T18:32:43;3.60;;;3.33;;
9392;SDS011;4736;52.508;13.422;2023-04-03T18:35:46;4.07;;;3.80;;
9392;SDS011;4736;52.508;13.422;2023-04-03T18:38:50;3.97;;;3.67;;
9392;SDS011;4736;52.508;13.422;2023-04-03T18:41:54;3.97;;;3.80;;
9392;SDS011;4736;52.508;13.422;2023-04-03T18:45:00;3.50;;;3.40;;
9392;SDS011;4736;52.508;13.422;2023-04-03T18:48:06;4.53;;;4.23;;
9392;SDS011;4736;52.508;13.422;2023-04-03T18:51:09;4.13;;;3.93;;
9392;SDS011;4736;52.508;13.422;2023-04-03T18:54:14;3.77;;;3.67;;
9392;SDS011;4736;52.508;13.422;2023-04-03T18:57:18;3.33;;;3.13;;
9392;SDS011;4736;52.508;13.422;2023-04-03T19:00:21;3.73;;;3.47;;
9392;SDS011;4736;52.508;13.422;2023-04-03T19:03:24;3.80;;;3.53;;
9392;SDS011;4736;52.508;13.422;2023-04-03T19:06:27;3.30;;;3.20;;